createdAt,value
2019-02-19T00:00:50.212Z,14.63
2019-02-19T00:03:19.751Z,14.80
2019-02-19T00:06:01.971Z,13.30
2019-02-19T00:08:50.403Z,18.10
2019-02-19T00:11:17.507Z,16.73
2019-02-19T00:13:49.444Z,17.53
2019-02-19T00:16:19.128Z,15.17
2019-02-19T00:19:09.248Z,14.83
2019-02-19T00:21:38.969Z,14.27
2019-02-19T00:24:08.362Z,15.90
2019-02-19T00:29:31.556Z,13.73
2019-02-19T00:32:01.424Z,17.57
2019-02-19T00:34:31.097Z,15.50
2019-02-19T00:39:37.064Z,20.83
2019-02-19T00:42:12.469Z,22.43
2019-02-19T00:44:42.291Z,16.40
2019-02-19T00:47:11.664Z,17.03
2019-02-19T00:50:16.340Z,17.60
2019-02-19T00:52:45.820Z,15.73
2019-02-19T00:55:34.203Z,20.47
2019-02-19T00:58:03.721Z,20.93
2019-02-19T01:00:33.335Z,16.23
2019-02-19T01:03:02.851Z,15.40
2019-02-19T01:05:41.192Z,19.43
2019-02-19T01:10:44.674Z,13.07
2019-02-19T01:13:16.199Z,17.03
2019-02-19T01:16:10.608Z,20.37
2019-02-19T01:22:36.130Z,16.83
2019-02-19T01:25:06.074Z,17.53
2019-02-19T01:27:35.698Z,17.87
2019-02-19T01:30:05.941Z,18.03
2019-02-19T01:32:35.392Z,19.57
2019-02-19T01:35:05.221Z,18.23
2019-02-19T01:37:34.600Z,17.97
2019-02-19T01:40:10.083Z,20.93
2019-02-19T01:42:39.521Z,20.80
2019-02-19T01:45:38.323Z,19.00
2019-02-19T01:48:07.730Z,20.13
2019-02-19T01:50:40.170Z,21.97
2019-02-19T01:53:09.889Z,24.87
2019-02-19T01:55:39.555Z,23.27
2019-02-19T01:58:09.149Z,28.43
2019-02-19T02:00:41.289Z,21.47
2019-02-19T02:03:10.657Z,21.17
2019-02-19T02:06:15.328Z,17.73
2019-02-19T02:09:11.089Z,17.90
2019-02-19T02:11:40.493Z,19.83
2019-02-19T02:14:09.834Z,23.40
2019-02-19T02:16:39.151Z,21.97
2019-02-19T02:19:08.873Z,20.30
2019-02-19T02:21:41.025Z,19.40
2019-02-19T02:24:10.507Z,30.10
2019-02-19T02:26:40.568Z,22.30
2019-02-19T02:29:10.311Z,16.63
2019-02-19T02:32:41.534Z,20.40
2019-02-19T02:35:11.455Z,20.00
2019-02-19T02:38:11.877Z,19.97
2019-02-19T02:40:41.305Z,20.80
2019-02-19T02:44:17.253Z,23.80
2019-02-19T02:46:46.831Z,17.93
2019-02-19T02:49:16.817Z,16.50
2019-02-19T02:52:17.601Z,21.00
2019-02-19T02:55:10.293Z,21.10
2019-02-19T02:57:39.637Z,16.47
2019-02-19T03:00:10.741Z,15.67
2019-02-19T03:03:05.628Z,16.70
2019-02-19T03:05:38.949Z,17.63
2019-02-19T03:08:13.273Z,17.37
2019-02-19T03:10:44.494Z,14.90
2019-02-19T03:13:13.890Z,14.53
2019-02-19T03:15:45.031Z,15.27
2019-02-19T03:18:14.713Z,14.20
2019-02-19T03:20:46.697Z,14.27
2019-02-19T03:23:16.262Z,15.20
2019-02-19T03:25:45.896Z,19.50
2019-02-19T03:28:15.428Z,19.43
2019-02-19T03:30:46.788Z,17.27
2019-02-19T03:33:37.799Z,14.67
2019-02-19T03:36:07.510Z,13.33
2019-02-19T03:38:37.219Z,19.03
2019-02-19T03:41:29.149Z,15.87
2019-02-19T03:43:58.631Z,19.47
2019-02-19T03:46:48.663Z,16.70
2019-02-19T03:49:18.048Z,19.40
2019-02-19T03:52:06.895Z,17.43
2019-02-19T03:54:38.175Z,18.27
2019-02-19T03:57:26.922Z,22.97
2019-02-19T03:59:58.869Z,18.17
2019-02-19T04:02:32.292Z,14.60
2019-02-19T04:05:01.885Z,19.40
2019-02-19T04:07:41.596Z,14.53
2019-02-19T04:10:11.080Z,14.87
2019-02-19T04:12:43.781Z,17.00
2019-02-19T04:15:13.222Z,16.40
2019-02-19T04:17:42.704Z,11.10
2019-02-19T04:20:12.120Z,15.07
2019-02-19T04:22:41.592Z,15.10
2019-02-19T04:25:10.888Z,14.53
2019-02-19T04:27:40.529Z,16.47
2019-02-19T04:30:09.958Z,14.53
2019-02-19T04:32:39.592Z,16.27
2019-02-19T04:35:09.113Z,12.17
2019-02-19T04:37:38.488Z,15.10
2019-02-19T04:40:08.056Z,15.00
2019-02-19T04:42:37.508Z,19.70
2019-02-19T04:45:06.841Z,17.87
2019-02-19T04:47:36.167Z,16.10
2019-02-19T04:50:06.081Z,15.70
2019-02-19T04:52:35.893Z,17.27
2019-02-19T04:55:05.413Z,21.80
2019-02-19T04:57:34.803Z,18.07
2019-02-19T05:00:04.783Z,11.87
2019-02-19T05:02:37.165Z,15.53
2019-02-19T05:05:07.251Z,14.93
2019-02-19T05:07:36.629Z,16.77
2019-02-19T05:10:06.607Z,14.17
2019-02-19T05:12:36.226Z,14.13
2019-02-19T05:15:05.812Z,16.23
2019-02-19T05:17:35.570Z,15.07
2019-02-19T05:20:05.364Z,13.97
2019-02-19T05:22:35.058Z,13.30
2019-02-19T05:25:07.025Z,14.07
2019-02-19T05:27:36.762Z,15.97
2019-02-19T05:30:08.348Z,15.63
2019-02-19T05:32:37.791Z,12.43
2019-02-19T05:35:08.007Z,11.53
2019-02-19T05:37:37.465Z,16.10
2019-02-19T05:40:08.361Z,8.77
2019-02-19T05:42:38.329Z,10.87
2019-02-19T05:45:07.788Z,12.73
2019-02-19T05:47:37.011Z,14.17
2019-02-19T05:50:06.737Z,11.83
2019-02-19T05:52:36.387Z,16.43
2019-02-19T05:55:05.811Z,11.23
2019-02-19T05:57:34.976Z,12.10
2019-02-19T06:00:04.361Z,11.23
2019-02-19T06:02:35.900Z,14.07
2019-02-19T06:05:07.295Z,11.30
2019-02-19T06:07:36.872Z,11.27
2019-02-19T06:10:07.151Z,14.13
2019-02-19T06:12:36.655Z,10.00
2019-02-19T06:15:15.210Z,9.90
2019-02-19T06:17:44.793Z,16.10
2019-02-19T06:20:14.175Z,12.30
2019-02-19T06:22:43.661Z,9.40
2019-02-19T06:25:13.307Z,11.03
2019-02-19T06:27:42.912Z,11.83
2019-02-19T06:33:06.713Z,15.90
2019-02-19T06:35:36.356Z,14.23
2019-02-19T06:38:05.978Z,9.90
2019-02-19T06:40:41.304Z,11.80
2019-02-19T06:46:13.843Z,12.40
2019-02-19T06:48:43.389Z,14.90
2019-02-19T06:51:14.063Z,18.90
2019-02-19T06:56:53.122Z,9.20
2019-02-19T06:59:24.578Z,12.27
2019-02-19T07:02:11.857Z,12.57
2019-02-19T07:04:47.163Z,10.00
2019-02-19T07:09:58.740Z,13.53
2019-02-19T07:12:29.555Z,13.97
2019-02-19T07:14:59.240Z,14.83
2019-02-19T07:17:45.019Z,12.30
2019-02-19T07:22:56.864Z,16.53
2019-02-19T07:25:26.471Z,12.83
2019-02-19T07:27:56.182Z,9.37
2019-02-19T07:35:43.920Z,12.60
2019-02-19T07:38:13.443Z,9.90
2019-02-19T07:43:35.719Z,11.87
2019-02-19T07:46:05.294Z,12.63
2019-02-19T07:48:34.769Z,11.37
2019-02-19T07:51:15.033Z,11.03
2019-02-19T07:56:14.835Z,14.43
2019-02-19T08:02:14.427Z,11.20
2019-02-19T08:04:43.829Z,10.13
2019-02-19T08:10:05.427Z,10.67
2019-02-19T08:12:45.741Z,12.23
2019-02-19T08:15:18.297Z,16.20
2019-02-19T08:17:47.860Z,15.73
2019-02-19T08:20:43.891Z,13.97
2019-02-19T08:26:24.535Z,8.50
2019-02-19T08:28:53.996Z,12.13
2019-02-19T08:31:44.167Z,9.77
2019-02-19T08:34:14.065Z,12.93
2019-02-19T08:36:43.540Z,9.67
2019-02-19T08:39:13.073Z,14.10
2019-02-19T08:45:12.997Z,7.77
2019-02-19T08:47:43.073Z,10.77
2019-02-19T08:50:42.485Z,8.37
2019-02-19T08:53:12.033Z,10.63
2019-02-19T08:55:45.991Z,9.43
2019-02-19T08:58:44.915Z,11.63
2019-02-19T09:01:44.570Z,10.77
2019-02-19T09:04:14.056Z,10.40
2019-02-19T09:07:13.583Z,7.73
2019-02-19T09:09:43.485Z,6.40
2019-02-19T09:15:21.337Z,6.53
2019-02-19T09:17:52.227Z,12.13
2019-02-19T09:20:44.831Z,7.77
2019-02-19T09:23:18.598Z,16.17
2019-02-19T09:25:48.077Z,9.77
2019-02-19T09:28:17.494Z,8.17
2019-02-19T09:30:47.157Z,9.27
2019-02-19T09:33:16.774Z,10.53
2019-02-19T09:36:14.284Z,9.37
2019-02-19T09:38:45.463Z,9.37
2019-02-19T09:41:15.228Z,7.30
2019-02-19T09:44:15.413Z,8.57
2019-02-19T09:46:45.264Z,13.23
2019-02-19T09:49:45.720Z,11.93
2019-02-19T09:52:48.322Z,11.17
2019-02-19T09:58:14.720Z,14.10
2019-02-19T10:01:15.278Z,13.43
2019-02-19T10:04:13.959Z,11.63
2019-02-19T10:06:43.431Z,11.60
2019-02-19T10:09:12.857Z,12.03
2019-02-19T10:11:42.273Z,12.47
2019-02-19T10:14:12.479Z,10.77
2019-02-19T10:16:42.271Z,8.47
2019-02-19T10:19:11.839Z,13.53
2019-02-19T10:24:30.354Z,7.30
2019-02-19T10:27:00.146Z,13.60
2019-02-19T10:29:29.752Z,9.87
2019-02-19T10:31:59.560Z,8.33
2019-02-19T10:34:30.417Z,12.37
2019-02-19T10:37:00.061Z,10.07
2019-02-19T10:40:11.839Z,10.90
2019-02-19T10:42:41.392Z,8.40
2019-02-19T10:45:17.806Z,6.03
2019-02-19T10:47:48.261Z,9.67
2019-02-19T10:53:15.405Z,8.00
2019-02-19T10:56:14.895Z,6.77
2019-02-19T10:58:44.330Z,11.40
2019-02-19T11:01:14.115Z,11.03
2019-02-19T11:06:36.842Z,7.57
2019-02-19T11:09:07.267Z,8.67
2019-02-19T11:11:36.656Z,11.63
2019-02-19T11:14:06.352Z,10.43
2019-02-19T11:16:36.155Z,12.90
2019-02-19T11:19:05.641Z,9.73
2019-02-19T11:21:45.017Z,11.70
2019-02-19T11:24:14.571Z,8.20
2019-02-19T11:26:44.160Z,9.80
2019-02-19T11:29:13.688Z,15.93
2019-02-19T11:31:43.629Z,8.13
2019-02-19T11:34:42.339Z,11.27
2019-02-19T11:40:14.446Z,12.70
2019-02-19T11:42:44.031Z,7.30
2019-02-19T11:45:14.206Z,11.40
2019-02-19T11:50:37.788Z,6.70
2019-02-19T11:53:07.188Z,6.07
2019-02-19T11:55:36.671Z,12.30
2019-02-19T11:58:06.171Z,4.30
2019-02-19T12:00:57.159Z,7.60
2019-02-19T12:03:26.961Z,9.27
2019-02-19T12:06:16.612Z,4.67
2019-02-19T12:08:46.273Z,6.73
2019-02-19T12:11:15.829Z,11.87
2019-02-19T12:14:22.618Z,8.53
2019-02-19T12:16:53.973Z,6.63
2019-02-19T12:19:24.196Z,6.33
2019-02-19T12:21:53.854Z,9.10
2019-02-19T12:24:25.343Z,5.50
2019-02-19T12:26:56.125Z,7.23
2019-02-19T12:29:26.882Z,7.67
2019-02-19T12:32:19.122Z,6.30
2019-02-19T12:34:48.859Z,6.83
2019-02-19T12:37:18.388Z,8.77
2019-02-19T12:42:38.155Z,6.43
2019-02-19T12:45:08.495Z,5.87
2019-02-19T12:47:37.904Z,4.13
2019-02-19T12:50:20.774Z,8.90
2019-02-19T12:53:14.075Z,5.73
2019-02-19T12:58:52.405Z,7.17
2019-02-19T13:01:22.380Z,5.80
2019-02-19T13:07:50.067Z,8.63
2019-02-19T13:10:19.579Z,7.23
2019-02-19T13:13:10.914Z,8.53
2019-02-19T13:15:40.528Z,10.57
2019-02-19T13:18:36.253Z,6.97
2019-02-19T13:21:56.707Z,6.87
2019-02-19T13:24:30.071Z,5.33
2019-02-19T13:26:59.501Z,5.40
2019-02-19T13:29:28.904Z,6.77
2019-02-19T13:32:01.016Z,9.83
2019-02-19T13:34:30.446Z,8.90
2019-02-19T13:37:30.492Z,8.10
2019-02-19T13:40:00.302Z,5.53
2019-02-19T13:42:29.982Z,3.97
2019-02-19T13:45:00.757Z,6.43
2019-02-19T13:47:30.273Z,3.83
2019-02-19T13:53:26.536Z,7.40
2019-02-19T13:56:34.692Z,5.13
2019-02-19T13:58:56.904Z,5.63
2019-02-19T14:01:35.773Z,4.57
2019-02-19T14:06:59.095Z,6.30
2019-02-19T14:09:28.638Z,7.63
2019-02-19T14:11:58.229Z,5.57
2019-02-19T14:14:34.927Z,9.37
2019-02-19T14:17:09.980Z,5.07
2019-02-19T14:19:53.264Z,6.17
2019-02-19T14:22:47.708Z,8.37
2019-02-19T14:25:39.114Z,8.97
2019-02-19T14:28:28.762Z,11.67
2019-02-19T14:31:18.592Z,7.63
2019-02-19T14:34:05.814Z,4.97
2019-02-19T14:36:54.235Z,5.70
2019-02-19T14:39:45.345Z,4.33
2019-02-19T14:42:29.831Z,8.17
2019-02-19T14:45:18.711Z,6.47
2019-02-19T14:48:13.829Z,5.77
2019-02-19T14:57:05.526Z,6.60
2019-02-19T15:00:11.649Z,5.37
2019-02-19T15:03:03.980Z,5.93
2019-02-19T15:06:26.646Z,8.00
2019-02-19T15:09:18.124Z,7.23
2019-02-19T15:23:53.153Z,7.77
2019-02-19T15:26:35.484Z,6.57
2019-02-19T15:29:59.750Z,4.20
2019-02-19T16:28:30.089Z,3.10
2019-02-19T17:06:52.964Z,9.13
2019-02-19T17:16:52.635Z,6.73
2019-02-19T17:22:35.283Z,5.87
2019-02-19T17:25:26.899Z,7.63
2019-02-19T17:28:27.358Z,5.37
2019-02-19T17:31:17.853Z,6.47
2019-02-19T17:34:24.066Z,4.23
2019-02-19T17:37:21.229Z,3.93
2019-02-19T17:40:05.557Z,3.63
2019-02-19T17:42:52.860Z,8.40
2019-02-19T17:45:57.904Z,6.37
2019-02-19T17:48:55.715Z,7.77
2019-02-19T17:51:37.911Z,9.80
2019-02-19T17:54:24.844Z,12.23
2019-02-19T17:57:14.431Z,9.60
2019-02-19T18:00:20.709Z,4.43
2019-02-19T18:03:09.227Z,6.97
2019-02-19T18:06:10.025Z,6.17
2019-02-19T18:08:47.180Z,4.40
2019-02-19T18:11:44.772Z,14.40
2019-02-19T18:14:39.301Z,6.57
2019-02-19T18:17:31.078Z,8.73
2019-02-19T18:20:00.556Z,10.00
2019-02-19T18:25:09.027Z,4.80
2019-02-19T18:27:46.462Z,8.43
2019-02-19T18:30:19.695Z,9.47
2019-02-19T18:32:54.771Z,6.80
2019-02-19T18:35:24.244Z,6.07
2019-02-19T18:37:54.847Z,6.57
2019-02-19T18:40:22.808Z,8.23
2019-02-19T18:42:52.411Z,7.87
2019-02-19T18:45:21.928Z,7.23
2019-02-19T18:47:51.494Z,7.47
2019-02-19T18:50:20.950Z,7.87
2019-02-19T18:52:51.924Z,4.00
2019-02-19T18:55:21.415Z,7.07
2019-02-19T18:57:50.981Z,6.83
2019-02-19T19:00:32.636Z,5.17
2019-02-19T19:03:02.088Z,6.67
2019-02-19T19:08:17.922Z,9.63
2019-02-19T19:10:55.447Z,6.70
2019-02-19T19:13:35.531Z,7.40
2019-02-19T19:21:37.940Z,10.70
2019-02-19T19:24:06.432Z,8.00
2019-02-19T19:26:36.103Z,8.73
2019-02-19T19:29:28.846Z,8.20
2019-02-19T19:31:58.689Z,7.17
2019-02-19T19:34:28.209Z,8.73
2019-02-19T19:36:57.614Z,9.50
2019-02-19T19:39:27.080Z,8.10
2019-02-19T19:41:56.929Z,8.25
2019-02-19T19:44:26.293Z,10.53
2019-02-19T19:46:55.791Z,14.05
2019-02-19T19:49:25.213Z,11.43
2019-02-19T19:51:54.708Z,9.57
2019-02-19T19:54:24.107Z,6.23
2019-02-19T19:56:53.488Z,6.87
2019-02-19T19:59:22.821Z,12.50
2019-02-19T20:01:52.119Z,11.23
2019-02-19T20:04:21.156Z,9.20
2019-02-19T20:06:50.473Z,11.43
2019-02-19T20:09:19.671Z,9.33
2019-02-19T20:11:48.896Z,8.30
2019-02-19T20:14:18.067Z,11.77
2019-02-19T20:16:47.146Z,11.87
2019-02-19T20:19:16.239Z,11.23
2019-02-19T20:21:45.431Z,11.60
2019-02-19T20:24:14.531Z,6.17
2019-02-19T20:26:43.697Z,8.53
2019-02-19T20:29:12.972Z,11.87
2019-02-19T20:31:42.211Z,10.27
2019-02-19T20:34:11.437Z,9.93
2019-02-19T20:36:40.905Z,10.60
2019-02-19T20:39:10.181Z,6.93
2019-02-19T20:41:39.383Z,4.70
2019-02-19T20:44:08.888Z,9.60
2019-02-19T20:46:39.507Z,6.57
2019-02-19T20:49:09.204Z,6.40
2019-02-19T20:51:57.695Z,14.87
2019-02-19T20:54:27.334Z,7.83
2019-02-19T20:56:57.105Z,11.57
2019-02-19T20:59:26.802Z,8.40
2019-02-19T21:01:56.213Z,4.20
2019-02-19T21:04:26.746Z,11.53
2019-02-19T21:06:56.183Z,12.63
2019-02-19T21:09:25.873Z,5.53
2019-02-19T21:11:55.265Z,7.47
2019-02-19T21:14:24.608Z,11.33
2019-02-19T21:16:54.016Z,9.63
2019-02-19T21:19:23.467Z,7.73
2019-02-19T21:21:52.931Z,5.77
2019-02-19T21:24:41.437Z,7.87
2019-02-19T21:27:10.793Z,6.93
2019-02-19T21:29:40.240Z,6.93
2019-02-19T21:32:28.808Z,6.03
2019-02-19T21:34:58.240Z,8.83
2019-02-19T21:45:55.285Z,9.67
2019-02-19T21:48:25.255Z,12.27
2019-02-19T21:53:34.157Z,6.80
2019-02-19T21:56:04.147Z,8.03
2019-02-19T22:01:49.940Z,8.80
2019-02-19T22:04:51.927Z,8.87
2019-02-19T22:07:21.434Z,8.00
2019-02-19T22:18:01.209Z,13.37
2019-02-19T22:20:50.037Z,15.10
2019-02-19T22:23:19.601Z,6.40
2019-02-19T22:25:48.985Z,11.43
2019-02-19T22:31:23.741Z,4.37
2019-02-19T22:33:38.535Z,7.67
2019-02-19T22:38:43.922Z,9.63
2019-02-19T22:41:13.424Z,7.60
2019-02-19T22:43:42.983Z,7.20
2019-02-19T22:46:31.535Z,7.67
2019-02-19T22:51:55.080Z,11.53
2019-02-19T22:54:52.897Z,9.57
2019-02-19T22:57:22.557Z,8.47
2019-02-19T22:59:52.225Z,8.43
2019-02-19T23:02:29.706Z,7.57
2019-02-19T23:05:23.855Z,9.47
2019-02-19T23:11:04.060Z,5.97
2019-02-19T23:13:33.516Z,9.17
2019-02-19T23:16:29.834Z,9.17
2019-02-19T23:18:59.399Z,9.13
2019-02-19T23:22:22.712Z,8.73
2019-02-19T23:25:11.388Z,12.90
2019-02-19T23:28:02.860Z,8.90
2019-02-19T23:30:54.024Z,10.10
2019-02-19T23:33:59.188Z,8.47
2019-02-19T23:36:47.647Z,9.60
2019-02-19T23:39:17.216Z,10.13
2019-02-19T23:42:05.720Z,8.13
2019-02-19T23:44:35.285Z,8.37
2019-02-19T23:47:04.676Z,10.77
2019-02-19T23:49:34.642Z,12.13
2019-02-19T23:52:04.169Z,10.73
2019-02-19T23:54:33.637Z,10.03
2019-02-19T23:57:02.948Z,7.70
2019-02-19T23:59:32.655Z,15.73
